createdAt,value
2018-06-27T00:00:18.237Z,17.90
2018-06-27T00:02:46.406Z,18.30
2018-06-27T00:05:14.590Z,18.80
2018-06-27T00:07:42.758Z,18.67
2018-06-27T00:10:10.927Z,18.50
2018-06-27T00:12:39.106Z,19.97
2018-06-27T00:15:07.279Z,18.90
2018-06-27T00:17:35.459Z,19.10
2018-06-27T00:20:03.676Z,18.47
2018-06-27T00:22:31.880Z,18.03
2018-06-27T00:25:00.064Z,16.70
2018-06-27T00:27:28.237Z,17.47
2018-06-27T00:29:56.426Z,17.63
2018-06-27T00:32:24.586Z,18.00
2018-06-27T00:34:52.760Z,18.20
2018-06-27T00:37:20.946Z,18.87
2018-06-27T00:39:49.130Z,18.57
2018-06-27T00:42:17.304Z,19.23
2018-06-27T00:44:45.479Z,18.03
2018-06-27T00:47:13.659Z,18.03
2018-06-27T00:49:41.824Z,17.67
2018-06-27T00:52:10.004Z,19.03
2018-06-27T00:54:38.179Z,18.37
2018-06-27T00:57:06.343Z,18.70
2018-06-27T00:59:34.526Z,19.70
2018-06-27T01:02:02.691Z,18.77
2018-06-27T01:04:30.850Z,17.83
2018-06-27T01:06:59.027Z,18.63
2018-06-27T01:09:27.710Z,19.20
2018-06-27T01:11:55.898Z,18.30
2018-06-27T01:14:24.060Z,18.47
2018-06-27T01:16:52.242Z,17.57
2018-06-27T01:19:20.419Z,18.30
2018-06-27T01:21:49.019Z,18.00
2018-06-27T01:24:17.216Z,17.40
2018-06-27T01:26:45.391Z,17.20
2018-06-27T01:29:13.555Z,16.97
2018-06-27T01:31:41.730Z,16.13
2018-06-27T01:34:09.906Z,16.20
2018-06-27T01:36:38.115Z,16.97
2018-06-27T01:39:08.042Z,17.50
2018-06-27T01:41:36.234Z,16.83
2018-06-27T01:44:04.448Z,15.70
2018-06-27T01:46:32.771Z,17.20
2018-06-27T01:49:00.953Z,16.83
2018-06-27T01:51:29.127Z,17.23
2018-06-27T01:53:57.282Z,16.40
2018-06-27T01:56:25.457Z,16.17
2018-06-27T01:58:53.618Z,16.47
2018-06-27T02:01:21.802Z,17.97
2018-06-27T02:03:49.967Z,16.70
2018-06-27T02:06:18.133Z,17.50
2018-06-27T02:08:46.339Z,17.50
2018-06-27T02:11:14.494Z,16.80
2018-06-27T02:13:42.693Z,16.40
2018-06-27T02:16:10.917Z,17.17
2018-06-27T02:18:39.070Z,17.60
2018-06-27T02:21:07.246Z,18.03
2018-06-27T02:23:35.410Z,17.90
2018-06-27T02:26:03.615Z,18.47
2018-06-27T02:28:31.791Z,18.23
2018-06-27T02:31:00.068Z,17.37
2018-06-27T02:33:28.251Z,18.40
2018-06-27T02:35:56.842Z,18.30
2018-06-27T02:38:25.370Z,18.00
2018-06-27T02:40:53.519Z,18.70
2018-06-27T02:43:22.011Z,17.30
2018-06-27T02:45:50.223Z,17.90
2018-06-27T02:48:18.426Z,17.97
2018-06-27T02:50:46.637Z,18.40
2018-06-27T02:53:14.899Z,17.53
2018-06-27T02:55:43.063Z,17.30
2018-06-27T02:58:11.278Z,17.90
2018-06-27T03:00:39.439Z,16.43
2018-06-27T03:03:07.623Z,16.97
2018-06-27T03:05:35.815Z,18.20
2018-06-27T03:08:03.988Z,17.97
2018-06-27T03:10:32.179Z,17.60
2018-06-27T03:13:00.369Z,17.70
2018-06-27T03:15:28.561Z,16.97
2018-06-27T03:17:56.731Z,18.93
2018-06-27T03:20:24.944Z,18.13
2018-06-27T03:22:53.074Z,18.50
2018-06-27T03:25:21.238Z,17.40
2018-06-27T03:27:49.423Z,16.33
2018-06-27T03:30:17.599Z,18.40
2018-06-27T03:32:45.778Z,16.73
2018-06-27T03:35:13.954Z,17.33
2018-06-27T03:37:42.111Z,16.90
2018-06-27T03:40:10.303Z,17.07
2018-06-27T03:42:38.466Z,16.77
2018-06-27T03:45:06.643Z,18.37
2018-06-27T03:47:34.823Z,18.40
2018-06-27T03:50:03.015Z,16.77
2018-06-27T03:52:31.208Z,17.17
2018-06-27T03:54:59.422Z,16.30
2018-06-27T03:57:27.563Z,16.63
2018-06-27T03:59:55.726Z,16.50
2018-06-27T04:02:23.894Z,15.90
2018-06-27T04:04:52.074Z,16.77
2018-06-27T04:07:20.252Z,16.93
2018-06-27T04:09:48.415Z,16.30
2018-06-27T04:12:16.606Z,16.37
2018-06-27T04:14:44.782Z,17.33
2018-06-27T04:19:47.575Z,16.60
2018-06-27T04:22:20.147Z,17.00
2018-06-27T04:24:48.326Z,16.40
2018-06-27T04:27:16.504Z,16.90
2018-06-27T04:29:44.678Z,15.53
2018-06-27T04:32:12.869Z,15.00
2018-06-27T04:34:41.055Z,15.07
2018-06-27T04:37:09.231Z,16.10
2018-06-27T04:39:37.422Z,15.53
2018-06-27T04:42:05.837Z,15.47
2018-06-27T04:44:34.043Z,16.53
2018-06-27T04:47:02.238Z,15.63
2018-06-27T04:49:30.489Z,16.27
2018-06-27T04:51:58.611Z,16.57
2018-06-27T04:54:26.778Z,16.87
2018-06-27T04:56:54.962Z,15.93
2018-06-27T04:59:23.159Z,16.50
2018-06-27T05:01:51.363Z,16.10
2018-06-27T05:04:19.530Z,17.57
2018-06-27T05:06:47.751Z,17.07
2018-06-27T05:09:15.926Z,18.27
2018-06-27T05:11:44.181Z,18.23
2018-06-27T05:14:12.272Z,17.17
2018-06-27T05:16:40.439Z,17.90
2018-06-27T05:19:08.615Z,18.70
2018-06-27T05:21:36.786Z,17.87
2018-06-27T05:24:05.144Z,17.50
2018-06-27T05:26:33.322Z,17.33
2018-06-27T05:29:01.563Z,16.57
2018-06-27T05:31:29.731Z,17.77
2018-06-27T05:34:00.822Z,18.63
2018-06-27T05:36:29.009Z,17.83
2018-06-27T05:38:57.195Z,18.50
2018-06-27T05:41:25.405Z,17.47
2018-06-27T05:43:53.987Z,17.20
2018-06-27T05:46:22.164Z,17.30
2018-06-27T05:48:50.346Z,18.40
2018-06-27T05:51:18.511Z,16.77
2018-06-27T05:53:46.694Z,17.07
2018-06-27T05:56:14.862Z,17.70
2018-06-27T05:58:43.047Z,18.43
2018-06-27T06:01:11.230Z,18.90
2018-06-27T06:03:39.402Z,17.10
2018-06-27T06:06:07.586Z,18.47
2018-06-27T06:08:35.754Z,19.00
2018-06-27T06:11:03.937Z,19.50
2018-06-27T06:13:32.192Z,20.20
2018-06-27T06:16:00.410Z,19.83
2018-06-27T06:18:28.594Z,21.00
2018-06-27T06:20:56.771Z,19.00
2018-06-27T06:23:25.052Z,19.73
2018-06-27T06:25:53.275Z,19.27
2018-06-27T06:28:21.466Z,19.20
2018-06-27T06:30:49.675Z,18.10
2018-06-27T06:33:17.863Z,19.43
2018-06-27T06:35:46.091Z,18.47
2018-06-27T06:38:14.283Z,18.23
2018-06-27T06:40:42.494Z,19.13
2018-06-27T06:43:11.458Z,17.33
2018-06-27T06:45:39.675Z,17.53
2018-06-27T06:48:07.874Z,17.33
2018-06-27T06:50:36.048Z,17.57
2018-06-27T06:53:04.220Z,17.97
2018-06-27T06:55:32.570Z,18.17
2018-06-27T06:58:00.747Z,17.27
2018-06-27T07:00:29.022Z,16.97
2018-06-27T07:02:57.212Z,18.00
2018-06-27T07:05:25.387Z,18.40
2018-06-27T07:07:53.571Z,18.30
2018-06-27T07:10:21.759Z,19.80
2018-06-27T07:12:50.107Z,19.80
2018-06-27T07:15:18.283Z,20.33
2018-06-27T07:17:46.540Z,18.10
2018-06-27T07:20:14.711Z,19.67
2018-06-27T07:22:42.887Z,20.30
2018-06-27T07:25:11.079Z,20.30
2018-06-27T07:27:39.247Z,22.03
2018-06-27T07:30:07.435Z,20.60
2018-06-27T07:32:35.611Z,20.80
2018-06-27T07:35:03.861Z,18.80
2018-06-27T07:37:31.979Z,21.27
2018-06-27T07:40:00.151Z,18.20
2018-06-27T07:42:28.319Z,19.90
2018-06-27T07:44:56.503Z,21.17
2018-06-27T07:47:24.667Z,19.60
2018-06-27T07:49:52.924Z,19.20
2018-06-27T07:52:21.063Z,19.10
2018-06-27T07:54:49.239Z,18.17
2018-06-27T07:57:17.419Z,19.23
2018-06-27T07:59:45.579Z,19.70
2018-06-27T08:02:20.106Z,17.60
2018-06-27T08:04:48.279Z,16.80
2018-06-27T08:07:16.450Z,15.83
2018-06-27T08:09:44.647Z,15.57
2018-06-27T08:12:12.855Z,16.37
2018-06-27T08:14:41.004Z,17.50
2018-06-27T08:17:09.203Z,17.00
2018-06-27T08:19:37.375Z,16.50
2018-06-27T08:22:05.887Z,15.80
2018-06-27T08:24:34.068Z,16.70
2018-06-27T08:27:02.307Z,15.97
2018-06-27T08:29:30.487Z,14.47
2018-06-27T08:31:58.659Z,14.77
2018-06-27T08:34:26.847Z,15.10
2018-06-27T08:36:55.175Z,15.10
2018-06-27T08:39:23.376Z,14.87
2018-06-27T08:41:51.560Z,15.57
2018-06-27T08:44:19.795Z,14.13
2018-06-27T08:46:47.915Z,13.63
2018-06-27T08:49:16.079Z,14.03
2018-06-27T08:51:44.251Z,14.27
2018-06-27T08:54:12.411Z,14.07
2018-06-27T08:56:40.579Z,14.20
2018-06-27T08:59:08.763Z,13.30
2018-06-27T09:01:36.939Z,12.70
2018-06-27T09:04:05.133Z,12.13
2018-06-27T09:06:33.304Z,13.00
2018-06-27T09:09:01.470Z,12.17
2018-06-27T09:11:29.659Z,12.10
2018-06-27T09:13:57.823Z,10.17
2018-06-27T09:16:26.005Z,10.00
2018-06-27T09:18:54.158Z,11.60
2018-06-27T09:21:22.341Z,12.37
2018-06-27T09:23:50.507Z,11.50
2018-06-27T09:26:18.675Z,11.73
2018-06-27T09:28:46.850Z,12.17
2018-06-27T09:31:15.057Z,11.90
2018-06-27T09:33:43.205Z,12.10
2018-06-27T09:36:11.379Z,10.53
2018-06-27T09:38:39.563Z,11.10
2018-06-27T09:41:07.766Z,12.03
2018-06-27T09:43:35.947Z,11.80
2018-06-27T09:46:04.151Z,12.73
2018-06-27T09:48:32.345Z,12.53
2018-06-27T09:51:00.523Z,12.47
2018-06-27T09:53:28.751Z,11.70
2018-06-27T09:55:57.025Z,11.90
2018-06-27T09:58:25.183Z,14.10
2018-06-27T10:00:53.391Z,12.63
2018-06-27T10:03:21.553Z,13.13
2018-06-27T10:05:49.735Z,13.50
2018-06-27T10:08:17.898Z,12.67
2018-06-27T10:10:46.067Z,10.57
2018-06-27T10:13:14.248Z,12.33
2018-06-27T10:15:42.416Z,11.67
2018-06-27T10:18:10.595Z,13.00
2018-06-27T10:20:38.756Z,12.30
2018-06-27T10:23:07.069Z,12.40
2018-06-27T10:25:35.235Z,13.67
2018-06-27T10:28:03.395Z,13.10
2018-06-27T10:30:31.575Z,12.27
2018-06-27T10:32:59.772Z,12.20
2018-06-27T10:35:27.962Z,11.37
2018-06-27T10:37:56.170Z,12.67
2018-06-27T10:40:24.341Z,12.63
2018-06-27T10:42:52.579Z,13.83
2018-06-27T10:45:20.867Z,12.40
2018-06-27T10:47:49.055Z,11.80
2018-06-27T10:50:17.257Z,12.33
2018-06-27T10:52:45.427Z,11.57
2018-06-27T10:55:20.155Z,11.53
2018-06-27T10:57:48.595Z,12.23
2018-06-27T11:00:16.772Z,10.20
2018-06-27T11:02:44.935Z,9.53
2018-06-27T11:05:13.129Z,10.00
2018-06-27T11:07:41.307Z,9.47
2018-06-27T11:10:09.747Z,9.90
2018-06-27T11:12:37.918Z,9.10
2018-06-27T11:15:06.911Z,8.57
2018-06-27T11:17:35.071Z,8.80
2018-06-27T11:20:03.279Z,8.93
2018-06-27T11:22:31.456Z,8.67
2018-06-27T11:24:59.611Z,8.73
2018-06-27T11:27:27.796Z,9.90
2018-06-27T11:29:56.020Z,9.70
2018-06-27T11:32:24.562Z,9.50
2018-06-27T11:34:52.736Z,9.63
2018-06-27T11:37:20.903Z,9.33
2018-06-27T11:39:49.072Z,9.37
2018-06-27T11:42:17.248Z,9.90
2018-06-27T11:44:45.421Z,10.40
2018-06-27T11:47:13.587Z,10.50
2018-06-27T11:49:41.760Z,9.77
2018-06-27T11:52:09.935Z,9.57
2018-06-27T11:54:38.128Z,10.53
2018-06-27T11:57:06.323Z,11.17
2018-06-27T11:59:34.512Z,10.90
2018-06-27T12:02:02.691Z,11.53
2018-06-27T12:04:30.879Z,9.80
2018-06-27T12:06:59.066Z,10.70
2018-06-27T12:09:27.387Z,9.67
2018-06-27T12:11:55.579Z,10.13
2018-06-27T12:14:23.755Z,9.80
2018-06-27T12:16:51.985Z,10.00
2018-06-27T12:19:20.131Z,9.50
2018-06-27T12:21:48.295Z,10.20
2018-06-27T12:24:16.460Z,10.00
2018-06-27T12:26:44.628Z,9.63
2018-06-27T12:29:12.779Z,8.60
2018-06-27T12:31:40.987Z,9.10
2018-06-27T12:34:09.145Z,9.77
2018-06-27T12:36:37.327Z,10.33
2018-06-27T12:39:07.279Z,10.37
2018-06-27T12:41:35.455Z,11.00
2018-06-27T12:44:03.634Z,11.40
2018-06-27T12:46:31.823Z,10.00
2018-06-27T12:48:59.990Z,9.63
2018-06-27T12:51:28.179Z,9.17
2018-06-27T12:53:56.359Z,9.47
2018-06-27T12:56:24.519Z,9.60
2018-06-27T12:58:53.019Z,9.73
2018-06-27T13:01:21.191Z,10.10
2018-06-27T13:03:49.346Z,11.07
2018-06-27T13:06:17.515Z,10.77
2018-06-27T13:08:45.743Z,9.90
2018-06-27T13:11:13.870Z,10.70
2018-06-27T13:13:42.059Z,9.70
2018-06-27T13:16:10.247Z,10.10
2018-06-27T13:18:38.437Z,10.00
2018-06-27T13:21:06.626Z,9.87
2018-06-27T13:23:34.807Z,11.33
2018-06-27T13:26:02.983Z,10.93
2018-06-27T13:28:31.142Z,10.60
2018-06-27T13:30:59.359Z,10.93
2018-06-27T13:33:27.529Z,10.30
2018-06-27T13:35:56.165Z,10.70
2018-06-27T13:38:24.327Z,10.17
2018-06-27T13:40:52.507Z,10.40
2018-06-27T13:43:20.799Z,10.60
2018-06-27T13:45:49.307Z,11.40
2018-06-27T13:48:17.517Z,11.37
2018-06-27T13:50:45.743Z,11.57
2018-06-27T13:53:13.941Z,11.20
2018-06-27T13:55:42.219Z,11.23
2018-06-27T13:58:10.379Z,11.60
2018-06-27T14:00:39.070Z,10.93
2018-06-27T14:03:07.280Z,11.30
2018-06-27T14:05:35.453Z,11.37
2018-06-27T14:08:03.671Z,10.97
2018-06-27T14:10:31.830Z,12.80
2018-06-27T14:12:59.988Z,13.87
2018-06-27T14:15:28.186Z,12.13
2018-06-27T14:17:56.348Z,14.20
2018-06-27T14:20:24.519Z,16.93
2018-06-27T14:22:52.703Z,11.80
2018-06-27T14:25:20.887Z,11.60
2018-06-27T14:27:49.059Z,12.50
2018-06-27T14:30:17.251Z,11.80
2018-06-27T14:32:45.412Z,11.80
2018-06-27T14:35:13.603Z,12.50
2018-06-27T14:37:41.788Z,12.10
2018-06-27T14:40:10.015Z,11.70
2018-06-27T14:42:38.207Z,12.30
2018-06-27T14:45:06.690Z,11.80
2018-06-27T14:47:34.867Z,11.27
2018-06-27T14:50:03.063Z,11.03
2018-06-27T14:52:31.295Z,11.43
2018-06-27T14:54:59.423Z,11.20
2018-06-27T14:57:27.603Z,12.73
2018-06-27T14:59:55.795Z,10.90
2018-06-27T15:02:24.006Z,11.87
2018-06-27T15:04:52.225Z,10.60
2018-06-27T15:07:20.411Z,11.30
2018-06-27T15:09:48.595Z,10.77
2018-06-27T15:12:16.773Z,10.40
2018-06-27T15:14:44.959Z,11.10
2018-06-27T15:17:13.137Z,10.60
2018-06-27T15:19:41.312Z,10.80
2018-06-27T15:22:09.527Z,10.40
2018-06-27T15:24:37.710Z,9.93
2018-06-27T15:27:05.907Z,10.50
2018-06-27T15:29:34.211Z,10.03
2018-06-27T15:32:02.387Z,10.50
2018-06-27T15:34:30.551Z,10.80
2018-06-27T15:36:58.735Z,10.90
2018-06-27T15:39:26.923Z,10.50
2018-06-27T15:41:55.094Z,10.40
2018-06-27T15:44:23.291Z,10.90
2018-06-27T15:46:51.647Z,11.23
2018-06-27T15:49:19.999Z,10.00
2018-06-27T15:51:48.176Z,10.40
2018-06-27T15:54:16.351Z,10.80
2018-06-27T15:56:44.519Z,11.03
2018-06-27T15:59:12.780Z,10.40
2018-06-27T16:01:40.944Z,10.90
2018-06-27T16:04:09.123Z,11.57
2018-06-27T16:06:37.363Z,11.00
2018-06-27T16:09:07.395Z,11.47
2018-06-27T16:11:35.704Z,10.67
2018-06-27T16:14:03.895Z,11.30
2018-06-27T16:16:32.071Z,12.00
2018-06-27T16:19:00.371Z,12.03
2018-06-27T16:21:28.579Z,11.13
2018-06-27T16:23:56.762Z,12.30
2018-06-27T16:26:24.967Z,12.57
2018-06-27T16:28:53.171Z,12.80
2018-06-27T16:31:21.352Z,11.30
2018-06-27T16:33:49.899Z,11.50
2018-06-27T16:36:18.115Z,11.00
2018-06-27T16:38:46.295Z,11.30
2018-06-27T16:41:14.508Z,11.70
2018-06-27T16:43:42.687Z,12.30
2018-06-27T16:46:10.881Z,11.00
2018-06-27T16:48:40.012Z,11.40
2018-06-27T16:51:08.375Z,11.13
2018-06-27T16:53:36.464Z,11.50
2018-06-27T16:56:04.801Z,11.77
2018-06-27T16:58:33.065Z,11.70
2018-06-27T17:01:01.280Z,11.20
2018-06-27T17:03:29.424Z,12.10
2018-06-27T17:05:57.617Z,11.60
2018-06-27T17:08:25.883Z,11.57
2018-06-27T17:10:54.046Z,10.83
2018-06-27T17:13:22.260Z,11.97
2018-06-27T17:15:50.430Z,11.47
2018-06-27T17:18:18.616Z,11.13
2018-06-27T17:20:46.819Z,11.00
2018-06-27T17:23:14.995Z,10.70
2018-06-27T17:25:43.167Z,12.03
2018-06-27T17:28:11.343Z,10.63
2018-06-27T17:30:39.681Z,11.83
2018-06-27T17:33:07.795Z,11.20
2018-06-27T17:35:36.004Z,11.10
2018-06-27T17:38:04.257Z,10.80
2018-06-27T17:40:32.392Z,12.70
2018-06-27T17:43:00.567Z,11.90
2018-06-27T17:45:28.726Z,11.10
2018-06-27T17:47:56.927Z,11.40
2018-06-27T17:50:25.139Z,10.73
2018-06-27T17:52:53.311Z,11.30
2018-06-27T17:55:21.519Z,12.20
2018-06-27T17:57:49.739Z,11.03
2018-06-27T18:00:18.138Z,12.10
2018-06-27T18:02:47.200Z,11.27
2018-06-27T18:05:15.598Z,11.10
2018-06-27T18:07:43.835Z,10.73
2018-06-27T18:10:12.180Z,11.27
2018-06-27T18:12:40.558Z,11.40
2018-06-27T18:15:08.956Z,11.20
2018-06-27T18:17:37.188Z,10.70
2018-06-27T18:20:06.526Z,10.73
2018-06-27T18:22:34.716Z,11.27
2018-06-27T18:25:03.103Z,12.47
2018-06-27T18:27:31.304Z,11.30
2018-06-27T18:29:59.488Z,10.53
2018-06-27T18:32:27.658Z,9.80
2018-06-27T18:34:55.843Z,10.57
2018-06-27T18:37:24.016Z,10.50
2018-06-27T18:39:52.203Z,11.10
2018-06-27T18:42:20.395Z,11.63
2018-06-27T18:44:48.575Z,9.90
2018-06-27T18:47:16.784Z,10.40
2018-06-27T18:49:45.035Z,11.00
2018-06-27T18:52:13.227Z,11.40
2018-06-27T18:54:41.427Z,10.50
2018-06-27T18:57:09.638Z,10.30
2018-06-27T18:59:37.819Z,10.17
2018-06-27T19:02:06.388Z,10.80
2018-06-27T19:04:34.966Z,10.63
2018-06-27T19:07:03.171Z,10.33
2018-06-27T19:09:31.656Z,11.43
2018-06-27T19:12:00.076Z,11.77
2018-06-27T19:14:28.281Z,10.90
2018-06-27T19:16:56.624Z,10.63
2018-06-27T19:19:24.887Z,9.60
2018-06-27T19:21:53.070Z,10.50
2018-06-27T19:24:21.411Z,11.27
2018-06-27T19:26:50.130Z,11.03
2018-06-27T19:29:18.299Z,10.20
2018-06-27T19:31:46.953Z,10.80
2018-06-27T19:34:15.651Z,10.83
2018-06-27T19:36:44.175Z,11.13
2018-06-27T19:39:13.233Z,10.87
2018-06-27T19:41:41.424Z,11.77
2018-06-27T19:44:10.439Z,10.70
2018-06-27T19:46:38.626Z,11.67
2018-06-27T19:49:06.866Z,11.20
2018-06-27T19:51:35.121Z,11.47
2018-06-27T19:54:03.283Z,10.60
2018-06-27T19:56:31.471Z,12.23
2018-06-27T19:58:59.647Z,11.20
2018-06-27T20:01:27.815Z,10.77
2018-06-27T20:03:55.992Z,10.93
2018-06-27T20:06:24.171Z,12.00
2018-06-27T20:08:52.351Z,11.07
2018-06-27T20:11:20.554Z,11.20
2018-06-27T20:13:48.725Z,11.83
2018-06-27T20:16:16.915Z,11.10
2018-06-27T20:18:45.088Z,11.23
2018-06-27T20:21:13.263Z,11.17
2018-06-27T20:23:41.423Z,11.20
2018-06-27T20:26:09.631Z,11.60
2018-06-27T20:28:37.804Z,11.70
2018-06-27T20:31:06.217Z,11.33
2018-06-27T20:33:34.351Z,11.20
2018-06-27T20:36:02.600Z,11.87
2018-06-27T20:38:30.833Z,10.90
2018-06-27T20:40:58.979Z,11.90
2018-06-27T20:43:27.155Z,11.73
2018-06-27T20:45:55.323Z,11.20
2018-06-27T20:48:23.515Z,11.10
2018-06-27T20:50:51.731Z,11.93
2018-06-27T20:53:19.907Z,10.83
2018-06-27T20:55:48.107Z,12.43
2018-06-27T20:58:16.267Z,11.40
2018-06-27T21:00:44.435Z,11.60
2018-06-27T21:03:12.623Z,12.13
2018-06-27T21:05:40.803Z,12.00
2018-06-27T21:08:09.021Z,11.80
2018-06-27T21:10:37.230Z,11.27
2018-06-27T21:13:05.514Z,11.40
2018-06-27T21:15:33.695Z,11.60
2018-06-27T21:18:01.874Z,11.70
2018-06-27T21:20:30.047Z,11.43
2018-06-27T21:22:58.231Z,11.10
2018-06-27T21:25:26.538Z,11.50
2018-06-27T21:27:54.691Z,11.60
2018-06-27T21:30:22.884Z,11.97
2018-06-27T21:32:51.040Z,11.60
2018-06-27T21:35:19.274Z,11.50
2018-06-27T21:37:47.388Z,11.13
2018-06-27T21:40:15.558Z,12.00
2018-06-27T21:42:43.732Z,12.40
2018-06-27T21:45:11.906Z,12.47
2018-06-27T21:47:40.233Z,12.40
2018-06-27T21:50:08.407Z,11.90
2018-06-27T21:52:36.572Z,12.30
2018-06-27T21:55:04.921Z,11.93
2018-06-27T21:57:33.073Z,13.33
2018-06-27T22:00:01.266Z,12.37
2018-06-27T22:02:29.431Z,13.07
2018-06-27T22:04:57.611Z,13.10
2018-06-27T22:07:25.796Z,12.50
2018-06-27T22:09:53.967Z,12.87
2018-06-27T22:12:22.195Z,12.33
2018-06-27T22:14:50.367Z,12.87
2018-06-27T22:17:18.539Z,12.60
2018-06-27T22:19:46.707Z,12.23
2018-06-27T22:22:14.871Z,12.57
2018-06-27T22:24:43.051Z,12.53
2018-06-27T22:27:11.235Z,12.83
2018-06-27T22:29:39.571Z,12.70
2018-06-27T22:32:07.735Z,12.90
2018-06-27T22:34:36.347Z,12.60
2018-06-27T22:37:04.552Z,12.77
2018-06-27T22:39:32.739Z,13.07
2018-06-27T22:42:00.921Z,12.03
2018-06-27T22:44:29.111Z,12.80
2018-06-27T22:46:57.283Z,12.07
2018-06-27T22:49:25.469Z,12.07
2018-06-27T22:51:53.620Z,12.20
2018-06-27T22:54:21.815Z,12.60
2018-06-27T22:56:49.992Z,12.47
2018-06-27T22:59:18.155Z,11.90
2018-06-27T23:01:46.330Z,13.70
2018-06-27T23:04:14.507Z,12.90
2018-06-27T23:06:42.703Z,12.20
2018-06-27T23:09:11.386Z,12.00
2018-06-27T23:11:39.662Z,12.27
2018-06-27T23:14:08.059Z,12.33
2018-06-27T23:16:36.213Z,12.83
2018-06-27T23:19:04.406Z,12.07
2018-06-27T23:21:32.589Z,12.50
2018-06-27T23:24:00.752Z,12.67
2018-06-27T23:26:28.959Z,12.70
2018-06-27T23:28:57.127Z,12.93
2018-06-27T23:31:25.303Z,13.43
2018-06-27T23:33:53.752Z,12.80
2018-06-27T23:36:21.927Z,13.17
2018-06-27T23:38:50.122Z,12.50
2018-06-27T23:41:18.279Z,12.50
2018-06-27T23:43:49.319Z,12.50
2018-06-27T23:46:17.499Z,12.37
2018-06-27T23:48:45.675Z,11.77
2018-06-27T23:51:13.874Z,12.77
2018-06-27T23:53:42.066Z,13.13
2018-06-27T23:56:10.259Z,13.27
2018-06-27T23:58:38.455Z,12.00
